sensor_id;sensor_type;location;lat;lon;timestamp;pressure;altitude;pressure_sealevel;temperature;humidity
47280;BME280;34064;44.942;0.008;2023-01-05T00:02:06;100306.25;;;13.38;66.60
47280;BME280;34064;44.942;0.008;2023-01-05T00:04:33;100308.03;;;13.37;66.74
47280;BME280;34064;44.942;0.008;2023-01-05T00:07:00;100303.69;;;13.36;66.67
47280;BME280;34064;44.942;0.008;2023-01-05T00:09:26;100307.31;;;13.35;66.78
47280;BME280;34064;44.942;0.008;2023-01-05T00:11:54;100304.53;;;13.37;66.77
47280;BME280;34064;44.942;0.008;2023-01-05T00:14:39;100299.06;;;13.38;66.84
47280;BME280;34064;44.942;0.008;2023-01-05T00:17:24;100287.56;;;13.38;66.69
47280;BME280;34064;44.942;0.008;2023-01-05T00:20:19;100293.84;;;13.37;66.89
47280;BME280;34064;44.942;0.008;2023-01-05T00:23:07;100291.28;;;13.35;66.92
47280;BME280;34064;44.942;0.008;2023-01-05T00:25:39;100292.03;;;13.37;66.81
47280;BME280;34064;44.942;0.008;2023-01-05T00:28:06;100284.00;;;13.37;66.85
47280;BME280;34064;44.942;0.008;2023-01-05T00:30:50;100279.66;;;13.36;66.92
47280;BME280;34064;44.942;0.008;2023-01-05T00:33:17;100286.69;;;13.37;66.84
47280;BME280;34064;44.942;0.008;2023-01-05T00:35:44;100278.69;;;13.37;66.84
47280;BME280;34064;44.942;0.008;2023-01-05T00:38:13;100272.59;;;13.35;66.85
47280;BME280;34064;44.942;0.008;2023-01-05T00:40:39;100272.59;;;13.35;66.74
47280;BME280;34064;44.942;0.008;2023-01-05T00:43:06;100267.34;;;13.34;66.84
47280;BME280;34064;44.942;0.008;2023-01-05T00:45:32;100266.38;;;13.35;66.75
47280;BME280;34064;44.942;0.008;2023-01-05T00:47:58;100274.41;;;13.35;66.82
47280;BME280;34064;44.942;0.008;2023-01-05T00:50:26;100274.31;;;13.36;66.86
47280;BME280;34064;44.942;0.008;2023-01-05T00:52:54;100268.97;;;13.36;66.78
47280;BME280;34064;44.942;0.008;2023-01-05T00:55:26;100253.91;;;13.35;66.82
47280;BME280;34064;44.942;0.008;2023-01-05T00:57:53;100264.59;;;13.35;66.79
47280;BME280;34064;44.942;0.008;2023-01-05T01:00:20;100261.06;;;13.35;66.81
47280;BME280;34064;44.942;0.008;2023-01-05T01:02:50;100252.22;;;13.34;66.93
47280;BME280;34064;44.942;0.008;2023-01-05T01:05:17;100255.81;;;13.33;66.89
47280;BME280;34064;44.942;0.008;2023-01-05T01:07:44;100254.88;;;13.34;66.95
47280;BME280;34064;44.942;0.008;2023-01-05T01:10:10;100255.81;;;13.33;66.86
47280;BME280;34064;44.942;0.008;2023-01-05T01:12:40;100254.13;;;13.32;67.00
47280;BME280;34064;44.942;0.008;2023-01-05T01:15:07;100250.50;;;13.33;67.01
47280;BME280;34064;44.942;0.008;2023-01-05T01:17:34;100249.63;;;13.33;66.99
47280;BME280;34064;44.942;0.008;2023-01-05T01:20:00;100252.28;;;13.33;66.96
47280;BME280;34064;44.942;0.008;2023-01-05T01:22:27;100255.47;;;13.25;67.35
47280;BME280;34064;44.942;0.008;2023-01-05T01:24:54;100251.84;;;13.26;67.01
47280;BME280;34064;44.942;0.008;2023-01-05T01:27:22;100245.56;;;13.27;67.13
47280;BME280;34064;44.942;0.008;2023-01-05T01:29:49;100241.06;;;13.27;67.19
47280;BME280;34064;44.942;0.008;2023-01-05T01:32:19;100242.78;;;13.29;67.04
47280;BME280;34064;44.942;0.008;2023-01-05T01:34:47;100235.63;;;13.29;67.20
47280;BME280;34064;44.942;0.008;2023-01-05T01:37:15;100242.69;;;13.30;67.18
47280;BME280;34064;44.942;0.008;2023-01-05T01:39:43;100234.47;;;13.33;67.05
47280;BME280;34064;44.942;0.008;2023-01-05T01:42:14;100236.38;;;13.31;67.13
47280;BME280;34064;44.942;0.008;2023-01-05T01:44:56;100238.94;;;13.33;67.20
47280;BME280;34064;44.942;0.008;2023-01-05T01:50:05;100233.81;;;13.30;67.16
47280;BME280;34064;44.942;0.008;2023-01-05T01:52:35;100236.50;;;13.30;66.99
47280;BME280;34064;44.942;0.008;2023-01-05T01:55:13;100234.66;;;13.30;67.14
47280;BME280;34064;44.942;0.008;2023-01-05T01:57:42;100231.16;;;13.30;67.19
47280;BME280;34064;44.942;0.008;2023-01-05T02:00:11;100234.66;;;13.30;67.07
47280;BME280;34064;44.942;0.008;2023-01-05T02:02:41;100235.53;;;13.31;67.20
47280;BME280;34064;44.942;0.008;2023-01-05T02:05:10;100235.44;;;13.32;67.23
47280;BME280;34064;44.942;0.008;2023-01-05T02:07:43;100237.25;;;13.32;67.19
47280;BME280;34064;44.942;0.008;2023-01-05T02:10:11;100235.44;;;13.32;67.26
47280;BME280;34064;44.942;0.008;2023-01-05T02:15:19;100229.13;;;13.33;67.19
47280;BME280;34064;44.942;0.008;2023-01-05T02:21:09;100230.84;;;13.34;66.89
47280;BME280;34064;44.942;0.008;2023-01-05T02:24:09;100229.97;;;13.34;67.19
47280;BME280;34064;44.942;0.008;2023-01-05T02:27:03;100229.13;;;13.33;66.95
47280;BME280;34064;44.942;0.008;2023-01-05T02:38:41;100226.78;;;13.29;67.10
47280;BME280;34064;44.942;0.008;2023-01-05T02:41:21;100223.34;;;13.26;67.18
47280;BME280;34064;44.942;0.008;2023-01-05T02:43:50;100227.91;;;13.24;67.25
47280;BME280;34064;44.942;0.008;2023-01-05T02:46:18;100210.31;;;13.22;67.17
47280;BME280;34064;44.942;0.008;2023-01-05T02:48:47;100221.16;;;13.19;67.27
47280;BME280;34064;44.942;0.008;2023-01-05T02:51:29;100217.75;;;13.17;67.56
47280;BME280;34064;44.942;0.008;2023-01-05T02:54:16;100210.72;;;13.16;67.46
47280;BME280;34064;44.942;0.008;2023-01-05T02:56:57;100207.94;;;13.17;67.54
47280;BME280;34064;44.942;0.008;2023-01-05T02:59:45;100199.94;;;13.17;67.41
47280;BME280;34064;44.942;0.008;2023-01-05T03:02:34;100200.78;;;13.18;67.51
47280;BME280;34064;44.942;0.008;2023-01-05T03:05:28;100205.38;;;13.16;67.58
47280;BME280;34064;44.942;0.008;2023-01-05T03:08:09;100198.31;;;13.15;67.62
47280;BME280;34064;44.942;0.008;2023-01-05T03:11:08;100193.94;;;13.14;67.55
47280;BME280;34064;44.942;0.008;2023-01-05T03:16:37;100184.97;;;13.15;67.59
47280;BME280;34064;44.942;0.008;2023-01-05T03:19:10;100187.66;;;13.15;67.58
47280;BME280;34064;44.942;0.008;2023-01-05T03:21:58;100187.72;;;13.13;67.48
47280;BME280;34064;44.942;0.008;2023-01-05T03:24:55;100185.06;;;13.13;67.55
47280;BME280;34064;44.942;0.008;2023-01-05T03:27:42;100184.22;;;13.13;67.80
47280;BME280;34064;44.942;0.008;2023-01-05T03:34:35;100185.94;;;13.14;67.67
47280;BME280;34064;44.942;0.008;2023-01-05T03:37:15;100178.41;;;13.06;67.88
47280;BME280;34064;44.942;0.008;2023-01-05T03:39:47;100177.78;;;13.02;67.95
47280;BME280;34064;44.942;0.008;2023-01-05T03:42:16;100176.53;;;13.08;67.68
47280;BME280;34064;44.942;0.008;2023-01-05T03:44:50;100166.69;;;13.08;67.67
47280;BME280;34064;44.942;0.008;2023-01-05T03:47:16;100170.13;;;13.10;67.71
47280;BME280;34064;44.942;0.008;2023-01-05T03:49:44;100172.59;;;13.14;67.75
47280;BME280;34064;44.942;0.008;2023-01-05T03:52:11;100160.97;;;13.15;67.76
47280;BME280;34064;44.942;0.008;2023-01-05T03:54:38;100157.53;;;13.13;67.82
47280;BME280;34064;44.942;0.008;2023-01-05T03:57:04;100157.44;;;13.14;67.71
47280;BME280;34064;44.942;0.008;2023-01-05T03:59:30;100150.31;;;13.15;67.86
47280;BME280;34064;44.942;0.008;2023-01-05T04:01:57;100153.72;;;13.17;67.75
47280;BME280;34064;44.942;0.008;2023-01-05T04:04:25;100154.69;;;13.16;67.73
47280;BME280;34064;44.942;0.008;2023-01-05T04:07:01;100157.34;;;13.16;67.82
47280;BME280;34064;44.942;0.008;2023-01-05T04:09:29;100160.97;;;13.15;67.71
47280;BME280;34064;44.942;0.008;2023-01-05T04:11:56;100154.88;;;13.13;67.79
47280;BME280;34064;44.942;0.008;2023-01-05T04:14:24;100149.44;;;13.14;67.64
47280;BME280;34064;44.942;0.008;2023-01-05T04:16:51;100148.00;;;13.08;67.62
47280;BME280;34064;44.942;0.008;2023-01-05T04:19:18;100149.19;;;13.04;67.85
47280;BME280;34064;44.942;0.008;2023-01-05T04:21:51;100155.38;;;13.05;67.93
47280;BME280;34064;44.942;0.008;2023-01-05T04:24:19;100149.19;;;13.04;67.87
47280;BME280;34064;44.942;0.008;2023-01-05T04:26:46;100146.53;;;13.04;67.70
47280;BME280;34064;44.942;0.008;2023-01-05T04:29:20;100149.38;;;13.01;67.76
47280;BME280;34064;44.942;0.008;2023-01-05T04:31:47;100152.16;;;13.00;67.91
47280;BME280;34064;44.942;0.008;2023-01-05T04:34:15;100144.28;;;12.98;67.76
47280;BME280;34064;44.942;0.008;2023-01-05T04:36:42;100144.28;;;12.98;67.89
47280;BME280;34064;44.942;0.008;2023-01-05T04:39:14;100142.56;;;12.97;67.81
47280;BME280;34064;44.942;0.008;2023-01-05T04:41:53;100149.59;;;12.98;67.84
47280;BME280;34064;44.942;0.008;2023-01-05T04:44:20;100142.56;;;12.97;67.90
47280;BME280;34064;44.942;0.008;2023-01-05T04:46:48;100141.69;;;12.97;67.81
47280;BME280;34064;44.942;0.008;2023-01-05T04:49:18;100140.84;;;12.96;67.86
47280;BME280;34064;44.942;0.008;2023-01-05T04:51:49;100137.22;;;12.97;67.93
47280;BME280;34064;44.942;0.008;2023-01-05T04:54:16;100139.13;;;12.95;67.90
47280;BME280;34064;44.942;0.008;2023-01-05T04:56:44;100139.13;;;12.95;67.78
47280;BME280;34064;44.942;0.008;2023-01-05T04:59:11;100133.97;;;12.92;67.99
47280;BME280;34064;44.942;0.008;2023-01-05T05:01:39;100129.53;;;12.92;67.85
47280;BME280;34064;44.942;0.008;2023-01-05T05:04:09;100133.22;;;12.90;67.82
47280;BME280;34064;44.942;0.008;2023-01-05T05:06:36;100136.09;;;12.87;67.77
47280;BME280;34064;44.942;0.008;2023-01-05T05:09:02;100135.75;;;12.78;67.66
47280;BME280;34064;44.942;0.008;2023-01-05T05:11:29;100137.94;;;12.72;67.84
47280;BME280;34064;44.942;0.008;2023-01-05T05:13:58;100141.38;;;12.74;67.74
47280;BME280;34064;44.942;0.008;2023-01-05T05:16:24;100139.66;;;12.73;67.81
47280;BME280;34064;44.942;0.008;2023-01-05T05:18:51;100138.78;;;12.72;67.88
47280;BME280;34064;44.942;0.008;2023-01-05T05:21:17;100149.47;;;12.72;67.99
47280;BME280;34064;44.942;0.008;2023-01-05T05:23:43;100149.47;;;12.72;67.97
47280;BME280;34064;44.942;0.008;2023-01-05T05:26:17;100153.06;;;12.71;67.57
47280;BME280;34064;44.942;0.008;2023-01-05T05:28:44;100149.56;;;12.71;67.87
47280;BME280;34064;44.942;0.008;2023-01-05T05:31:15;100156.81;;;12.69;67.78
47280;BME280;34064;44.942;0.008;2023-01-05T05:33:42;100148.72;;;12.70;67.69
47280;BME280;34064;44.942;0.008;2023-01-05T05:36:13;100149.47;;;12.72;67.82
47280;BME280;34064;44.942;0.008;2023-01-05T05:38:41;100147.75;;;12.71;67.84
47280;BME280;34064;44.942;0.008;2023-01-05T05:41:08;100156.50;;;12.73;67.91
47280;BME280;34064;44.942;0.008;2023-01-05T05:43:36;100146.72;;;12.74;67.65
47280;BME280;34064;44.942;0.008;2023-01-05T05:46:03;100144.88;;;12.74;67.81
47280;BME280;34064;44.942;0.008;2023-01-05T05:48:30;100147.56;;;12.74;67.76
47280;BME280;34064;44.942;0.008;2023-01-05T05:50:56;100152.88;;;12.74;67.66
47280;BME280;34064;44.942;0.008;2023-01-05T05:53:23;100146.59;;;12.75;67.77
47280;BME280;34064;44.942;0.008;2023-01-05T05:55:50;100145.84;;;12.73;67.75
47280;BME280;34064;44.942;0.008;2023-01-05T05:58:23;100153.84;;;12.73;67.76
47280;BME280;34064;44.942;0.008;2023-01-05T06:00:49;100154.78;;;12.72;67.81
47280;BME280;34064;44.942;0.008;2023-01-05T06:03:15;100160.13;;;12.72;67.66
47280;BME280;34064;44.942;0.008;2023-01-05T06:05:43;100156.72;;;12.70;67.78
47280;BME280;34064;44.942;0.008;2023-01-05T06:08:09;100155.00;;;12.69;67.73
47280;BME280;34064;44.942;0.008;2023-01-05T06:10:35;100160.41;;;12.68;67.92
47280;BME280;34064;44.942;0.008;2023-01-05T06:13:04;100150.69;;;12.67;67.71
47280;BME280;34064;44.942;0.008;2023-01-05T06:15:34;100157.75;;;12.68;67.75
47280;BME280;34064;44.942;0.008;2023-01-05T06:18:00;100153.28;;;12.68;67.77
47280;BME280;34064;44.942;0.008;2023-01-05T06:20:30;100156.91;;;12.67;67.79
47280;BME280;34064;44.942;0.008;2023-01-05T06:22:57;100158.69;;;12.67;67.63
47280;BME280;34064;44.942;0.008;2023-01-05T06:25:25;100160.41;;;12.68;67.86
47280;BME280;34064;44.942;0.008;2023-01-05T06:27:58;100165.66;;;12.69;67.74
47280;BME280;34064;44.942;0.008;2023-01-05T06:30:25;100159.47;;;12.69;67.83
47280;BME280;34064;44.942;0.008;2023-01-05T06:32:52;100154.13;;;12.69;67.90
47280;BME280;34064;44.942;0.008;2023-01-05T06:35:18;100156.91;;;12.67;67.81
47280;BME280;34064;44.942;0.008;2023-01-05T06:37:44;100157.75;;;12.68;67.89
47280;BME280;34064;44.942;0.008;2023-01-05T06:40:11;100147.97;;;12.68;67.74
47280;BME280;34064;44.942;0.008;2023-01-05T06:42:41;100149.69;;;12.69;67.85
47280;BME280;34064;44.942;0.008;2023-01-05T06:45:13;100143.41;;;12.70;67.71
47280;BME280;34064;44.942;0.008;2023-01-05T06:47:40;100141.56;;;12.71;67.82
47280;BME280;34064;44.942;0.008;2023-01-05T06:50:08;100140.63;;;12.72;67.74
47280;BME280;34064;44.942;0.008;2023-01-05T06:52:35;100146.06;;;12.70;67.91
47280;BME280;34064;44.942;0.008;2023-01-05T06:55:09;100141.56;;;12.71;67.85
47280;BME280;34064;44.942;0.008;2023-01-05T06:57:37;100141.69;;;12.69;67.91
47280;BME280;34064;44.942;0.008;2023-01-05T07:00:08;100141.69;;;12.69;67.76
47280;BME280;34064;44.942;0.008;2023-01-05T07:02:36;100139.00;;;12.69;67.79
47280;BME280;34064;44.942;0.008;2023-01-05T07:05:04;100144.34;;;12.69;67.74
47280;BME280;34064;44.942;0.008;2023-01-05T07:07:35;100141.69;;;12.69;68.00
47280;BME280;34064;44.942;0.008;2023-01-05T07:10:03;100138.13;;;12.69;67.89
47280;BME280;34064;44.942;0.008;2023-01-05T07:12:30;100137.28;;;12.68;67.78
47280;BME280;34064;44.942;0.008;2023-01-05T07:14:58;100146.44;;;12.64;67.79
47280;BME280;34064;44.942;0.008;2023-01-05T07:17:25;100140.75;;;12.56;67.80
47280;BME280;34064;44.942;0.008;2023-01-05T07:19:51;100147.91;;;12.55;67.87
47280;BME280;34064;44.942;0.008;2023-01-05T07:22:18;100145.31;;;12.54;67.89
47280;BME280;34064;44.942;0.008;2023-01-05T07:24:44;100146.25;;;12.53;68.00
47280;BME280;34064;44.942;0.008;2023-01-05T07:27:13;100141.88;;;12.52;67.87
47280;BME280;34064;44.942;0.008;2023-01-05T07:29:40;100141.88;;;12.52;67.98
47280;BME280;34064;44.942;0.008;2023-01-05T07:32:07;100140.19;;;12.51;67.82
47280;BME280;34064;44.942;0.008;2023-01-05T07:34:34;100141.22;;;12.48;67.80
47280;BME280;34064;44.942;0.008;2023-01-05T07:37:02;100140.38;;;12.47;67.89
47280;BME280;34064;44.942;0.008;2023-01-05T07:39:29;100140.38;;;12.47;67.83
47280;BME280;34064;44.942;0.008;2023-01-05T07:41:57;100140.56;;;12.44;67.80
47280;BME280;34064;44.942;0.008;2023-01-05T07:44:27;100143.22;;;12.44;67.93
47280;BME280;34064;44.942;0.008;2023-01-05T07:46:58;100136.09;;;12.45;68.02
47280;BME280;34064;44.942;0.008;2023-01-05T07:49:27;100138.66;;;12.46;67.74
47280;BME280;34064;44.942;0.008;2023-01-05T07:51:56;100140.38;;;12.47;67.72
47280;BME280;34064;44.942;0.008;2023-01-05T07:54:23;100146.53;;;12.48;67.90
47280;BME280;34064;44.942;0.008;2023-01-05T07:56:57;100145.69;;;12.47;67.94
47280;BME280;34064;44.942;0.008;2023-01-05T07:59:25;100147.41;;;12.48;67.86
47280;BME280;34064;44.942;0.008;2023-01-05T08:01:52;100141.13;;;12.50;67.77
47280;BME280;34064;44.942;0.008;2023-01-05T08:04:20;100150.84;;;12.51;67.86
47280;BME280;34064;44.942;0.008;2023-01-05T08:06:47;100145.53;;;12.51;67.96
47280;BME280;34064;44.942;0.008;2023-01-05T08:09:18;100140.91;;;12.53;67.76
47280;BME280;34064;44.942;0.008;2023-01-05T08:12:06;100131.91;;;12.55;67.86
47280;BME280;34064;44.942;0.008;2023-01-05T08:14:34;100141.50;;;12.58;67.70
47280;BME280;34064;44.942;0.008;2023-01-05T08:17:01;100143.22;;;12.59;67.79
47280;BME280;34064;44.942;0.008;2023-01-05T08:19:32;100136.00;;;12.61;67.80
47280;BME280;34064;44.942;0.008;2023-01-05T08:22:02;100132.34;;;12.62;67.90
47280;BME280;34064;44.942;0.008;2023-01-05T08:24:36;100134.06;;;12.63;67.86
47280;BME280;34064;44.942;0.008;2023-01-05T08:27:03;100132.16;;;12.65;67.90
47280;BME280;34064;44.942;0.008;2023-01-05T08:29:31;100127.59;;;12.67;67.84
47280;BME280;34064;44.942;0.008;2023-01-05T08:31:58;100127.41;;;12.70;67.84
47280;BME280;34064;44.942;0.008;2023-01-05T08:34:29;100130.78;;;12.72;67.74
47280;BME280;34064;44.942;0.008;2023-01-05T08:36:59;100131.56;;;12.74;67.94
47280;BME280;34064;44.942;0.008;2023-01-05T08:39:26;100135.00;;;12.76;67.90
47280;BME280;34064;44.942;0.008;2023-01-05T08:41:53;100130.50;;;12.77;67.92
47280;BME280;34064;44.942;0.008;2023-01-05T08:44:19;100132.88;;;12.82;67.83
47280;BME280;34064;44.942;0.008;2023-01-05T08:46:46;100135.34;;;12.85;67.85
47280;BME280;34064;44.942;0.008;2023-01-05T08:49:12;100129.81;;;12.88;67.88
47280;BME280;34064;44.942;0.008;2023-01-05T08:51:39;100141.97;;;12.92;67.87
47280;BME280;34064;44.942;0.008;2023-01-05T08:54:05;100140.91;;;12.94;67.78
47280;BME280;34064;44.942;0.008;2023-01-05T08:56:34;100132.72;;;12.98;67.91
47280;BME280;34064;44.942;0.008;2023-01-05T08:59:01;100134.25;;;13.02;67.90
47280;BME280;34064;44.942;0.008;2023-01-05T09:01:27;100126.13;;;13.03;67.95
47280;BME280;34064;44.942;0.008;2023-01-05T09:03:54;100127.66;;;13.07;67.97
47280;BME280;34064;44.942;0.008;2023-01-05T09:06:21;100128.19;;;13.13;67.87
47280;BME280;34064;44.942;0.008;2023-01-05T09:08:47;100132.38;;;13.17;68.16
47280;BME280;34064;44.942;0.008;2023-01-05T09:11:24;100133.03;;;13.20;68.14
47280;BME280;34064;44.942;0.008;2023-01-05T09:13:53;100122.13;;;13.23;68.12
47280;BME280;34064;44.942;0.008;2023-01-05T09:16:23;100129.09;;;13.26;67.97
47280;BME280;34064;44.942;0.008;2023-01-05T09:18:49;100119.84;;;13.32;68.06
47280;BME280;34064;44.942;0.008;2023-01-05T09:21:18;100118.75;;;13.34;68.30
47280;BME280;34064;44.942;0.008;2023-01-05T09:23:48;100118.53;;;13.37;68.39
47280;BME280;34064;44.942;0.008;2023-01-05T09:26:14;100117.41;;;13.41;68.36
47280;BME280;34064;44.942;0.008;2023-01-05T09:28:42;100125.00;;;13.48;68.35
47280;BME280;34064;44.942;0.008;2023-01-05T09:31:19;100119.25;;;13.54;68.59
47280;BME280;34064;44.942;0.008;2023-01-05T09:33:49;100116.28;;;13.59;68.58
47280;BME280;34064;44.942;0.008;2023-01-05T09:36:17;100112.53;;;13.61;68.43
47280;BME280;34064;44.942;0.008;2023-01-05T09:38:48;100113.28;;;13.63;68.48
47280;BME280;34064;44.942;0.008;2023-01-05T09:43:51;100114.56;;;13.70;68.55
47280;BME280;34064;44.942;0.008;2023-01-05T09:46:21;100105.16;;;13.78;68.52
47280;BME280;34064;44.942;0.008;2023-01-05T09:48:56;100108.59;;;13.80;68.61
47280;BME280;34064;44.942;0.008;2023-01-05T09:51:24;100108.16;;;13.86;68.55
47280;BME280;34064;44.942;0.008;2023-01-05T09:53:51;100103.47;;;13.89;68.58
47280;BME280;34064;44.942;0.008;2023-01-05T09:56:38;100099.50;;;13.95;68.49
47280;BME280;34064;44.942;0.008;2023-01-05T09:59:43;100101.75;;;14.01;68.45
47280;BME280;34064;44.942;0.008;2023-01-05T10:05:12;100097.47;;;14.12;68.68
47280;BME280;34064;44.942;0.008;2023-01-05T10:11:07;100091.47;;;14.21;68.42
47280;BME280;34064;44.942;0.008;2023-01-05T10:13:35;100094.78;;;14.25;68.45
47280;BME280;34064;44.942;0.008;2023-01-05T10:16:05;100096.38;;;14.27;68.51
47280;BME280;34064;44.942;0.008;2023-01-05T10:18:38;100086.19;;;14.32;68.47
47280;BME280;34064;44.942;0.008;2023-01-05T10:22:09;100090.38;;;14.37;68.62
47280;BME280;34064;44.942;0.008;2023-01-05T10:26:54;100088.00;;;14.45;68.61
47280;BME280;34064;44.942;0.008;2023-01-05T10:30:18;100084.97;;;14.49;68.50
47280;BME280;34064;44.942;0.008;2023-01-05T10:41:22;100078.56;;;14.52;68.92
47280;BME280;34064;44.942;0.008;2023-01-05T10:44:06;100082.84;;;14.55;68.86
47280;BME280;34064;44.942;0.008;2023-01-05T10:46:38;100070.09;;;14.58;68.99
47280;BME280;34064;44.942;0.008;2023-01-05T10:49:07;100072.44;;;14.63;68.80
47280;BME280;34064;44.942;0.008;2023-01-05T10:51:39;100068.50;;;14.69;68.83
47280;BME280;34064;44.942;0.008;2023-01-05T10:54:09;100071.66;;;14.74;68.89
47280;BME280;34064;44.942;0.008;2023-01-05T10:56:51;100066.19;;;14.75;68.92
47280;BME280;34064;44.942;0.008;2023-01-05T10:59:17;100057.13;;;14.78;68.82
47280;BME280;34064;44.942;0.008;2023-01-05T11:01:46;100058.44;;;14.84;68.71
47280;BME280;34064;44.942;0.008;2023-01-05T11:04:25;100051.44;;;14.82;68.67
47280;BME280;34064;44.942;0.008;2023-01-05T11:06:51;100042.31;;;14.85;68.51
47280;BME280;34064;44.942;0.008;2023-01-05T11:09:27;100040.38;;;14.87;68.72
47280;BME280;34064;44.942;0.008;2023-01-05T11:11:58;100039.38;;;14.88;68.87
47280;BME280;34064;44.942;0.008;2023-01-05T11:14:32;100039.91;;;14.93;68.82
47280;BME280;34064;44.942;0.008;2023-01-05T11:17:05;100034.94;;;15.00;68.80
47280;BME280;34064;44.942;0.008;2023-01-05T11:19:48;100026.56;;;15.05;68.76
47280;BME280;34064;44.942;0.008;2023-01-05T11:25:29;100009.81;;;15.14;68.68
47280;BME280;34064;44.942;0.008;2023-01-05T11:28:15;100012.97;;;15.19;68.65
47280;BME280;34064;44.942;0.008;2023-01-05T11:31:02;100002.19;;;15.21;68.48
47280;BME280;34064;44.942;0.008;2023-01-05T11:33:31;99997.44;;;15.24;68.35
47280;BME280;34064;44.942;0.008;2023-01-05T11:36:06;99996.34;;;15.27;68.26
47280;BME280;34064;44.942;0.008;2023-01-05T11:38:34;99983.56;;;15.31;68.09
47280;BME280;34064;44.942;0.008;2023-01-05T11:41:00;99979.56;;;15.36;68.19
47280;BME280;34064;44.942;0.008;2023-01-05T11:43:30;99975.56;;;15.42;68.18
47280;BME280;34064;44.942;0.008;2023-01-05T11:46:02;99964.22;;;15.50;67.86
47280;BME280;34064;44.942;0.008;2023-01-05T11:48:34;99957.78;;;15.64;67.58
47280;BME280;34064;44.942;0.008;2023-01-05T11:51:01;99942.94;;;15.71;67.65
47280;BME280;34064;44.942;0.008;2023-01-05T11:53:37;99932.94;;;15.84;67.68
47280;BME280;34064;44.942;0.008;2023-01-05T11:56:16;99937.56;;;15.94;67.36
47280;BME280;34064;44.942;0.008;2023-01-05T11:58:51;99925.03;;;16.05;67.22
47280;BME280;34064;44.942;0.008;2023-01-05T12:05:12;99915.06;;;16.29;66.72
47280;BME280;34064;44.942;0.008;2023-01-05T12:07:36;99892.53;;;16.52;66.72
47280;BME280;34064;44.942;0.008;2023-01-05T12:16:44;99860.09;;;17.29;65.42
47280;BME280;34064;44.942;0.008;2023-01-05T12:22:24;99833.91;;;17.62;64.85
47280;BME280;34064;44.942;0.008;2023-01-05T12:36:37;99822.06;;;17.74;64.07
47280;BME280;34064;44.942;0.008;2023-01-05T12:39:35;99816.94;;;17.71;64.05
47280;BME280;34064;44.942;0.008;2023-01-05T12:48:12;99823.56;;;17.57;63.66
47280;BME280;34064;44.942;0.008;2023-01-05T12:50:52;99819.47;;;17.53;63.60
47280;BME280;34064;44.942;0.008;2023-01-05T12:54:04;99815.50;;;17.48;63.89
47280;BME280;34064;44.942;0.008;2023-01-05T12:56:45;99822.69;;;17.37;64.00
47280;BME280;34064;44.942;0.008;2023-01-05T13:02:34;99822.38;;;17.30;64.66
47280;BME280;34064;44.942;0.008;2023-01-05T13:05:18;99819.69;;;17.30;64.21
47280;BME280;34064;44.942;0.008;2023-01-05T13:07:51;99821.06;;;17.25;64.30
47280;BME280;34064;44.942;0.008;2023-01-05T13:11:06;99818.53;;;17.23;64.36
47280;BME280;34064;44.942;0.008;2023-01-05T13:13:18;99815.69;;;17.25;64.32
47280;BME280;34064;44.942;0.008;2023-01-05T13:16:03;99812.44;;;17.21;64.58
47280;BME280;34064;44.942;0.008;2023-01-05T13:18:33;99816.00;;;17.22;64.40
47280;BME280;34064;44.942;0.008;2023-01-05T13:21:06;99810.88;;;17.19;64.38
47280;BME280;34064;44.942;0.008;2023-01-05T13:23:40;99809.75;;;17.21;64.31
47280;BME280;34064;44.942;0.008;2023-01-05T13:26:20;99809.91;;;17.20;64.23
47280;BME280;34064;44.942;0.008;2023-01-05T13:28:52;99814.56;;;17.18;64.30
47280;BME280;34064;44.942;0.008;2023-01-05T13:54:01;99787.97;;;17.14;63.96
47280;BME280;34064;44.942;0.008;2023-01-05T13:56:38;99783.31;;;17.17;63.89
47280;BME280;34064;44.942;0.008;2023-01-05T13:59:28;99777.69;;;17.20;63.92
47280;BME280;34064;44.942;0.008;2023-01-05T14:01:57;99781.22;;;17.20;63.89
47280;BME280;34064;44.942;0.008;2023-01-05T14:04:34;99777.84;;;17.18;63.65
47280;BME280;34064;44.942;0.008;2023-01-05T14:07:40;99780.22;;;17.11;63.69
47280;BME280;34064;44.942;0.008;2023-01-05T14:10:29;99776.09;;;17.07;63.80
47280;BME280;34064;44.942;0.008;2023-01-05T14:12:56;99780.88;;;17.04;64.05
47280;BME280;34064;44.942;0.008;2023-01-05T14:15:42;99784.13;;;17.07;64.24
47280;BME280;34064;44.942;0.008;2023-01-05T14:21:10;99786.56;;;17.10;64.18
47280;BME280;34064;44.942;0.008;2023-01-05T14:26:06;99772.81;;;17.04;64.12
47280;BME280;34064;44.942;0.008;2023-01-05T14:28:45;99775.34;;;17.05;64.18
47280;BME280;34064;44.942;0.008;2023-01-05T14:36:41;99766.22;;;17.08;63.98
47280;BME280;34064;44.942;0.008;2023-01-05T14:39:27;99763.38;;;17.09;63.99
47280;BME280;34064;44.942;0.008;2023-01-05T14:44:34;99758.28;;;17.06;64.13
47280;BME280;34064;44.942;0.008;2023-01-05T14:47:05;99762.66;;;17.07;64.04
47280;BME280;34064;44.942;0.008;2023-01-05T14:49:51;99759.41;;;17.04;64.08
47280;BME280;34064;44.942;0.008;2023-01-05T14:55:35;99763.22;;;17.01;64.23
47280;BME280;34064;44.942;0.008;2023-01-05T14:58:13;99756.72;;;17.04;64.20
47280;BME280;34064;44.942;0.008;2023-01-05T15:01:27;99764.19;;;17.00;64.20
47280;BME280;34064;44.942;0.008;2023-01-05T15:04:30;99760.69;;;16.99;64.22
47280;BME280;34064;44.942;0.008;2023-01-05T15:07:27;99761.66;;;16.98;63.86
47280;BME280;34064;44.942;0.008;2023-01-05T15:17:07;99748.03;;;16.90;64.08
47280;BME280;34064;44.942;0.008;2023-01-05T15:34:42;99746.56;;;16.76;64.53
47280;BME280;34064;44.942;0.008;2023-01-05T15:37:35;99741.47;;;16.73;64.61
47280;BME280;34064;44.942;0.008;2023-01-05T15:40:05;99755.84;;;16.72;64.59
47280;BME280;34064;44.942;0.008;2023-01-05T15:42:46;99750.50;;;16.72;64.69
47280;BME280;34064;44.942;0.008;2023-01-05T15:45:21;99753.44;;;16.69;64.82